首页
METAR-TAF:

METAR-TAF

机场 :

科钦国际机场

柯枝, 印度

纬度: 10-09-07N, 经度: 76-24-07E, 海拔: 9米

当前天气观测

该预报发布于25分钟前的00:30 UTC
风速4节,风向东转东南
温度 25°C
湿度 94%
气压 1008 hPa
能見度: 3000
散云层高于1500英尺
多云层高于8000英尺
轻雾,

METAR: VOCI 170030Z 12004KT 3000 BR SCT015 BKN080 25/24 Q1008 NOSIG

时间: 06:25 (00:55 UTC)

预报

该预报发布于1小时和55分钟前的23:00 UTC
预报有效从17日的 00点(UTC)到 18日的 06点(UTC)
风速节,风向
能見度: 3000
散云层高于1200英尺
少量云层高于2500英尺, 积雨云.
多云层高于8000英尺
轻雾
成为
从 17日的 03点(UTC)到 17日的 05点(UTC)
风速5节,风向南转南东
能見度: 4000
散云层高于1200英尺
多云层高于8000英尺
轻雾
短暂存在
从 17日的 08点(UTC)到 17日的 12点(UTC)
风速10节,风向西转西南
能見度: 3000
少量云层高于800英尺
散云层高于1200英尺
少量云层高于2500英尺, 积雨云.
多云层高于8000英尺
雷暴, 雨, 雨
成为
从 17日的 14点(UTC)到 17日的 16点(UTC)
风速5节,风向西
能見度: 4000
散云层高于1200英尺
少量云层高于2500英尺, 积雨云.
多云层高于8000英尺
小雨, 轻雾
短暂存在
从 17日的 22点(UTC)到 18日的 02点(UTC)
风速2节,风向多变
能見度: 2500
散云层高于1200英尺
多云层高于8000英尺
雨, 轻雾
成为
从 18日的 03点(UTC)到 18日的 05点(UTC)
风速5节,风向
能見度: 4000
散云层高于1200英尺
多云层高于8000英尺
轻雾,

TAF: VOCI 162300Z 1700/1806 00000KT 3000 BR SCT012 FEW025CB BKN080 BECMG 1703/1705 15005KT 4000 BR SCT012 BKN080 TEMPO 1708/1712 25010KT 3000 TSRA RA FEW008 SCT012 FEW025CB BKN080 BECMG 1714/1716 26005KT 4000 -RA BR SCT012 FEW025CB BKN080 TEMPO 1722/1802 VRB02KT 2500 RA BR SCT012 BKN080 BECMG 1803/1805 18005KT 4000 BR SCT012 BKN080

超过4000个机场的气象观测和天气预报(METAR&TAF报告)。

可查询的气象台以黄色和红色小点在地图上表示。

将鼠标移到小点上方,可查看气象台名称。

然后点击查看天气观测和预报。

如需切换地图:点击带黑十字的绿色按钮放大地图;点击带横线的绿色按钮缩小地图;或者点击绿色箭头查看邻近地区的地图。


METAR-TAF: